createdAt,value
2022-09-15T00:00:04.812Z,19.32
2022-09-15T00:01:04.849Z,19.33
2022-09-15T00:01:45.873Z,19.32
2022-09-15T00:02:33.934Z,19.32
2022-09-15T00:03:27.767Z,19.31
2022-09-15T00:04:22.791Z,19.24
2022-09-15T00:05:16.813Z,19.30
2022-09-15T00:06:10.797Z,19.27
2022-09-15T00:07:04.801Z,19.16
2022-09-15T00:07:51.796Z,19.16
2022-09-15T00:08:25.849Z,19.07
2022-09-15T00:09:12.769Z,19.04
2022-09-15T00:09:46.867Z,19.07
2022-09-15T00:10:35.778Z,19.04
2022-09-15T00:11:14.018Z,19.10
2022-09-15T00:12:00.750Z,19.05
2022-09-15T00:12:34.872Z,18.95
2022-09-15T00:13:15.764Z,18.92
2022-09-15T00:13:56.936Z,18.93
2022-09-15T00:14:37.829Z,18.74
2022-09-15T00:15:20.863Z,18.71
2022-09-15T00:16:00.773Z,18.65
2022-09-15T00:16:40.849Z,18.57
2022-09-15T00:17:21.791Z,18.48
2022-09-15T00:18:01.898Z,18.59
2022-09-15T00:18:43.831Z,18.58
2022-09-15T00:19:23.889Z,18.60
2022-09-15T00:20:04.766Z,18.53
2022-09-15T00:20:50.842Z,18.59
2022-09-15T00:21:35.756Z,18.54
2022-09-15T00:22:15.828Z,18.54
2022-09-15T00:22:56.780Z,18.56
2022-09-15T00:23:36.818Z,18.55
2022-09-15T00:24:17.759Z,18.51
2022-09-15T00:24:57.819Z,18.41
2022-09-15T00:25:37.732Z,18.48
2022-09-15T00:26:20.922Z,18.45
2022-09-15T00:27:00.780Z,18.34
2022-09-15T00:27:40.864Z,18.38
2022-09-15T00:28:23.748Z,18.43
2022-09-15T00:29:05.885Z,18.40
2022-09-15T00:29:46.773Z,18.39
2022-09-15T00:30:26.872Z,18.40
2022-09-15T00:31:06.838Z,18.35
2022-09-15T00:31:46.881Z,18.35
2022-09-15T00:32:26.725Z,18.36
2022-09-15T00:33:07.369Z,18.31
2022-09-15T00:33:48.753Z,18.31
2022-09-15T00:34:28.830Z,18.29
2022-09-15T00:35:09.797Z,18.23
2022-09-15T00:35:53.060Z,18.26
2022-09-15T00:36:33.793Z,18.25
2022-09-15T00:37:27.748Z,18.22
2022-09-15T00:38:23.745Z,18.27
2022-09-15T00:39:18.714Z,18.29
2022-09-15T00:40:12.921Z,18.30
2022-09-15T00:41:09.734Z,18.30
2022-09-15T00:42:03.762Z,18.33
2022-09-15T00:42:57.771Z,18.31
2022-09-15T00:43:54.769Z,18.14
2022-09-15T00:45:15.764Z,18.27
2022-09-15T00:46:09.892Z,18.20
2022-09-15T00:47:19.310Z,18.20
2022-09-15T00:48:13.804Z,18.19
2022-09-15T00:49:23.715Z,18.10
2022-09-15T00:50:26.757Z,18.07
2022-09-15T00:51:22.809Z,18.16
2022-09-15T00:52:29.770Z,18.10
2022-09-15T00:53:25.737Z,18.09
2022-09-15T00:54:26.735Z,18.10
2022-09-15T00:55:26.857Z,18.16
2022-09-15T00:56:22.714Z,18.19
2022-09-15T00:57:27.791Z,18.18
2022-09-15T00:58:33.701Z,18.16
2022-09-15T00:59:32.774Z,18.28
2022-09-15T01:00:31.766Z,18.30
2022-09-15T01:01:27.806Z,18.26
2022-09-15T01:02:34.801Z,18.22
2022-09-15T01:03:28.682Z,18.19
2022-09-15T01:04:22.738Z,18.25
2022-09-15T01:05:21.754Z,18.23
2022-09-15T01:06:10.761Z,18.28
2022-09-15T01:07:04.820Z,18.31
2022-09-15T01:08:00.787Z,18.19
2022-09-15T01:08:52.751Z,18.34
2022-09-15T01:09:51.712Z,18.30
2022-09-15T01:10:46.597Z,18.38
2022-09-15T01:11:27.739Z,18.37
2022-09-15T01:12:09.785Z,18.38
2022-09-15T01:12:50.725Z,18.38
2022-09-15T01:13:31.815Z,18.40
2022-09-15T01:14:12.702Z,18.42
2022-09-15T01:14:52.817Z,18.36
2022-09-15T01:16:20.735Z,18.28
2022-09-15T01:17:23.798Z,18.31
2022-09-15T01:18:35.995Z,18.33
2022-09-15T01:19:54.730Z,18.18
2022-09-15T01:20:51.785Z,18.36
2022-09-15T01:22:02.706Z,18.35
2022-09-15T01:22:50.776Z,18.34
2022-09-15T01:24:14.761Z,18.41
2022-09-15T01:26:03.766Z,18.44
2022-09-15T01:27:41.680Z,18.49
2022-09-15T01:29:06.733Z,18.41
2022-09-15T01:30:12.846Z,18.40
2022-09-15T01:31:22.778Z,18.38
2022-09-15T01:32:51.593Z,18.37
2022-09-15T01:33:49.693Z,18.22
2022-09-15T01:34:30.740Z,18.22
2022-09-15T01:35:38.741Z,18.22
2022-09-15T01:36:47.740Z,18.18
2022-09-15T01:37:27.829Z,18.14
2022-09-15T01:38:55.692Z,18.07
2022-09-15T01:39:45.851Z,17.97
2022-09-15T01:40:45.716Z,18.06
2022-09-15T01:41:44.753Z,18.04
2022-09-15T01:42:38.669Z,18.08
2022-09-15T01:43:36.779Z,18.06
2022-09-15T01:44:38.758Z,18.12
2022-09-15T01:45:32.780Z,18.20
2022-09-15T01:46:14.834Z,18.25
2022-09-15T01:47:00.671Z,18.23
2022-09-15T01:47:40.880Z,18.27
2022-09-15T01:48:22.699Z,18.26
2022-09-15T01:49:03.775Z,18.18
2022-09-15T01:50:06.712Z,18.18
2022-09-15T01:50:54.689Z,18.13
2022-09-15T01:51:30.774Z,18.14
2022-09-15T01:52:17.734Z,18.15
2022-09-15T01:52:53.784Z,18.11
2022-09-15T01:53:41.738Z,18.07
2022-09-15T01:54:15.836Z,18.08
2022-09-15T01:55:07.680Z,18.12
2022-09-15T01:55:49.784Z,18.05
2022-09-15T01:56:30.685Z,18.10
2022-09-15T01:57:10.732Z,18.09
2022-09-15T01:57:51.689Z,18.13
2022-09-15T01:58:31.754Z,18.12
2022-09-15T01:59:12.668Z,18.12
2022-09-15T01:59:52.824Z,18.13
2022-09-15T02:00:32.729Z,18.16
2022-09-15T02:01:50.765Z,18.16
2022-09-15T02:02:51.693Z,18.21
2022-09-15T02:04:01.752Z,18.16
2022-09-15T02:05:06.704Z,18.17
2022-09-15T02:06:09.664Z,18.07
2022-09-15T02:07:13.709Z,18.14
2022-09-15T02:08:30.704Z,18.15
2022-09-15T02:09:35.829Z,18.03
2022-09-15T02:11:00.673Z,17.99
2022-09-15T02:12:07.698Z,17.97
2022-09-15T02:12:58.755Z,17.83
2022-09-15T02:14:18.291Z,17.82
2022-09-15T02:15:04.678Z,17.87
2022-09-15T02:15:51.713Z,17.88
2022-09-15T02:16:36.836Z,17.88
2022-09-15T02:17:22.837Z,17.84
2022-09-15T02:18:04.657Z,17.79
2022-09-15T02:18:52.723Z,17.76
2022-09-15T02:19:39.830Z,17.71
2022-09-15T02:20:33.296Z,17.75
2022-09-15T02:21:26.648Z,17.87
2022-09-15T02:22:23.556Z,17.88
2022-09-15T02:23:14.824Z,17.85
2022-09-15T02:24:03.482Z,17.80
2022-09-15T02:24:52.846Z,17.81
2022-09-15T02:25:38.713Z,17.86
2022-09-15T02:26:23.642Z,17.87
2022-09-15T02:27:04.821Z,17.75
2022-09-15T02:27:52.685Z,17.85
2022-09-15T02:28:37.832Z,17.80
2022-09-15T02:29:13.778Z,17.85
2022-09-15T02:30:06.675Z,17.77
2022-09-15T02:30:44.888Z,17.88
2022-09-15T02:31:32.726Z,17.83
2022-09-15T02:32:08.826Z,17.97
2022-09-15T02:33:02.641Z,18.01
2022-09-15T02:33:54.672Z,17.95
2022-09-15T02:34:51.666Z,18.03
2022-09-15T02:35:48.680Z,18.01
2022-09-15T02:36:43.668Z,18.02
2022-09-15T02:37:37.633Z,18.07
2022-09-15T02:38:31.699Z,18.10
2022-09-15T02:39:24.687Z,18.10
2022-09-15T02:40:01.830Z,18.01
2022-09-15T02:40:50.608Z,18.10
2022-09-15T02:41:24.721Z,18.10
2022-09-15T02:42:12.677Z,18.07
2022-09-15T02:42:46.778Z,18.08
2022-09-15T02:43:34.664Z,18.11
2022-09-15T02:44:08.961Z,18.09
2022-09-15T02:44:48.648Z,18.04
2022-09-15T02:45:31.094Z,18.01
2022-09-15T02:46:12.682Z,17.94
2022-09-15T02:46:52.860Z,17.88
2022-09-15T02:47:34.628Z,17.97
2022-09-15T02:48:14.970Z,17.94
2022-09-15T02:48:55.655Z,17.94
2022-09-15T02:49:35.723Z,17.91
2022-09-15T02:50:16.655Z,17.92
2022-09-15T02:50:56.765Z,17.92
2022-09-15T02:51:37.669Z,17.88
2022-09-15T02:52:18.719Z,17.88
2022-09-15T02:53:02.649Z,17.94
2022-09-15T02:53:44.547Z,17.93
2022-09-15T02:54:25.661Z,17.97
2022-09-15T02:55:05.680Z,17.92
2022-09-15T02:55:46.657Z,17.94
2022-09-15T02:56:26.677Z,17.95
2022-09-15T02:57:07.621Z,17.95
2022-09-15T02:57:47.689Z,17.98
2022-09-15T02:58:27.677Z,17.95
2022-09-15T02:59:07.687Z,17.98
2022-09-15T03:00:11.596Z,17.97
2022-09-15T03:00:58.779Z,17.92
2022-09-15T03:01:52.669Z,17.95
2022-09-15T03:02:46.630Z,17.91
2022-09-15T03:03:42.951Z,17.87
2022-09-15T03:04:36.705Z,17.75
2022-09-15T03:05:33.609Z,17.84
2022-09-15T03:06:23.625Z,17.88
2022-09-15T03:06:57.701Z,17.86
2022-09-15T03:07:44.608Z,17.93
2022-09-15T03:08:18.705Z,17.88
2022-09-15T03:09:06.636Z,17.90
2022-09-15T03:09:40.696Z,17.91
2022-09-15T03:10:28.646Z,17.98
2022-09-15T03:11:04.697Z,17.97
2022-09-15T03:11:44.651Z,18.02
2022-09-15T03:12:24.693Z,18.00
2022-09-15T03:13:05.649Z,18.00
2022-09-15T03:13:45.674Z,17.98
2022-09-15T03:14:25.586Z,17.93
2022-09-15T03:15:05.660Z,17.96
2022-09-15T03:15:45.614Z,17.96
2022-09-15T03:16:25.729Z,17.94
2022-09-15T03:17:06.622Z,18.00
2022-09-15T03:17:48.693Z,18.01
2022-09-15T03:18:29.602Z,18.01
2022-09-15T03:19:09.701Z,18.07
2022-09-15T03:19:50.684Z,18.01
2022-09-15T03:20:33.675Z,17.92
2022-09-15T03:21:18.616Z,17.93
2022-09-15T03:21:58.647Z,17.98
2022-09-15T03:22:39.688Z,18.08
2022-09-15T03:23:20.722Z,17.94
2022-09-15T03:24:00.695Z,17.97
2022-09-15T03:24:42.479Z,17.96
2022-09-15T03:25:25.611Z,17.95
2022-09-15T03:26:05.804Z,17.92
2022-09-15T03:26:45.628Z,17.90
2022-09-15T03:27:25.673Z,17.93
2022-09-15T03:28:05.744Z,17.87
2022-09-15T03:28:47.706Z,17.99
2022-09-15T03:29:27.602Z,17.98
2022-09-15T03:30:07.763Z,18.00
2022-09-15T03:30:48.690Z,18.01
2022-09-15T03:31:28.758Z,17.98
2022-09-15T03:32:09.606Z,17.92
2022-09-15T03:32:49.653Z,17.96
2022-09-15T03:33:30.602Z,17.95
2022-09-15T03:34:10.700Z,17.98
2022-09-15T03:34:51.734Z,18.01
2022-09-15T03:35:32.666Z,17.94
2022-09-15T03:36:13.614Z,17.96
2022-09-15T03:36:53.652Z,17.94
2022-09-15T03:37:34.568Z,17.97
2022-09-15T03:38:14.708Z,17.98
2022-09-15T03:38:54.626Z,17.96
2022-09-15T03:39:35.690Z,18.01
2022-09-15T03:40:16.618Z,18.04
2022-09-15T03:41:04.678Z,17.98
2022-09-15T03:41:45.617Z,18.02
2022-09-15T03:42:25.674Z,18.01
2022-09-15T03:43:06.691Z,17.99
2022-09-15T03:43:47.741Z,17.99
2022-09-15T03:44:28.626Z,18.00
2022-09-15T03:45:08.661Z,17.98
2022-09-15T03:45:48.596Z,18.10
2022-09-15T03:46:29.429Z,18.11
2022-09-15T03:47:10.621Z,18.09
2022-09-15T03:47:50.665Z,18.09
2022-09-15T03:48:32.585Z,18.10
2022-09-15T03:49:12.744Z,18.09
2022-09-15T03:49:52.617Z,18.09
2022-09-15T03:50:32.668Z,17.97
2022-09-15T03:51:14.611Z,18.01
2022-09-15T03:51:54.870Z,18.00
2022-09-15T03:52:38.643Z,18.09
2022-09-15T03:53:18.671Z,18.12
2022-09-15T03:53:58.601Z,18.11
2022-09-15T03:54:38.626Z,18.08
2022-09-15T03:55:19.681Z,18.12
2022-09-15T03:56:00.655Z,18.17
2022-09-15T03:56:41.656Z,18.18
2022-09-15T03:57:21.614Z,18.13
2022-09-15T03:58:02.590Z,18.15
2022-09-15T03:58:42.669Z,18.12
2022-09-15T03:59:25.583Z,18.15
2022-09-15T04:00:08.264Z,18.16
2022-09-15T04:00:49.672Z,18.14
2022-09-15T04:01:44.657Z,18.19
2022-09-15T04:02:38.705Z,18.19
2022-09-15T04:03:32.595Z,18.18
2022-09-15T04:04:27.542Z,18.26
2022-09-15T04:05:22.585Z,18.25
2022-09-15T04:06:10.578Z,18.21
2022-09-15T04:06:45.638Z,18.20
2022-09-15T04:07:32.543Z,18.27
2022-09-15T04:08:06.784Z,18.25
2022-09-15T04:08:57.734Z,18.21
2022-09-15T04:09:31.650Z,18.23
2022-09-15T04:10:19.592Z,18.27
2022-09-15T04:10:55.073Z,18.16
2022-09-15T04:11:34.581Z,18.12
2022-09-15T04:12:14.604Z,18.07
2022-09-15T04:12:54.599Z,17.94
2022-09-15T04:13:34.650Z,18.04
2022-09-15T04:14:15.554Z,18.09
2022-09-15T04:14:55.687Z,18.10
2022-09-15T04:15:35.594Z,18.04
2022-09-15T04:16:25.685Z,17.95
2022-09-15T04:17:06.587Z,17.92
2022-09-15T04:17:46.621Z,17.86
2022-09-15T04:18:26.567Z,17.83
2022-09-15T04:19:07.481Z,17.89
2022-09-15T04:19:48.545Z,17.85
2022-09-15T04:20:28.682Z,17.86
2022-09-15T04:21:12.544Z,17.81
2022-09-15T04:21:53.130Z,17.72
2022-09-15T04:22:38.613Z,17.64
2022-09-15T04:23:18.666Z,17.69
2022-09-15T04:24:02.543Z,17.66
2022-09-15T04:24:42.600Z,17.69
2022-09-15T04:25:23.565Z,17.60
2022-09-15T04:26:10.031Z,17.48
2022-09-15T04:26:50.532Z,17.38
2022-09-15T04:27:34.266Z,17.33
2022-09-15T04:28:15.661Z,17.39
2022-09-15T04:28:55.622Z,17.44
2022-09-15T04:29:35.589Z,17.52
2022-09-15T04:30:16.620Z,17.54
2022-09-15T04:30:56.540Z,17.59
2022-09-15T04:31:36.706Z,17.61
2022-09-15T04:32:17.571Z,17.67
2022-09-15T04:32:57.613Z,17.64
2022-09-15T04:33:38.601Z,17.67
2022-09-15T04:34:18.637Z,17.69
2022-09-15T04:34:59.617Z,17.74
2022-09-15T04:35:39.585Z,17.71
2022-09-15T04:36:26.540Z,17.75
2022-09-15T04:37:07.464Z,17.71
2022-09-15T04:37:47.558Z,17.64
2022-09-15T04:38:27.588Z,17.69
2022-09-15T04:39:08.570Z,17.73
2022-09-15T04:39:49.215Z,17.69
2022-09-15T04:40:29.558Z,17.71
2022-09-15T04:41:10.645Z,17.72
2022-09-15T04:41:50.520Z,17.69
2022-09-15T04:42:31.413Z,17.66
2022-09-15T04:43:13.525Z,17.67
2022-09-15T04:43:53.661Z,17.61
2022-09-15T04:44:34.573Z,17.64
2022-09-15T04:45:15.607Z,17.64
2022-09-15T04:45:56.530Z,17.47
2022-09-15T04:46:36.630Z,17.59
2022-09-15T04:47:17.550Z,17.46
2022-09-15T04:47:57.603Z,17.59
2022-09-15T04:48:38.508Z,17.47
2022-09-15T04:49:18.847Z,17.46
2022-09-15T04:49:59.545Z,17.50
2022-09-15T04:50:43.515Z,17.39
2022-09-15T04:51:27.524Z,17.50
2022-09-15T04:52:09.734Z,17.50
2022-09-15T04:52:51.492Z,17.39
2022-09-15T04:53:31.682Z,17.31
2022-09-15T04:54:12.534Z,17.24
2022-09-15T04:54:52.624Z,17.14
2022-09-15T04:55:33.537Z,17.22
2022-09-15T04:56:19.605Z,17.07
2022-09-15T04:56:59.554Z,17.08
2022-09-15T04:57:40.555Z,17.02
2022-09-15T04:58:20.503Z,16.94
2022-09-15T04:59:04.561Z,16.98
2022-09-15T04:59:44.508Z,17.02
2022-09-15T05:00:26.928Z,17.04
2022-09-15T05:01:24.599Z,17.05
2022-09-15T05:02:05.692Z,16.96
2022-09-15T05:02:45.500Z,17.02
2022-09-15T05:03:25.558Z,17.04
2022-09-15T05:04:10.489Z,17.00
2022-09-15T05:04:51.579Z,16.94
2022-09-15T05:05:32.488Z,16.94
2022-09-15T05:06:15.571Z,16.87
2022-09-15T05:06:56.549Z,16.90
2022-09-15T05:07:36.592Z,16.78
2022-09-15T05:08:17.519Z,16.70
2022-09-15T05:09:00.563Z,16.74
2022-09-15T05:09:40.514Z,16.67
2022-09-15T05:10:21.700Z,16.78
2022-09-15T05:11:14.520Z,16.72
2022-09-15T05:11:54.542Z,16.68
2022-09-15T05:12:35.640Z,16.61
2022-09-15T05:13:15.593Z,16.67
2022-09-15T05:13:56.530Z,16.62
2022-09-15T05:14:37.588Z,16.51
2022-09-15T05:15:18.561Z,16.50
2022-09-15T05:15:58.634Z,16.59
2022-09-15T05:16:38.543Z,16.64
2022-09-15T05:17:18.546Z,16.68
2022-09-15T05:17:59.513Z,16.49
2022-09-15T05:18:39.588Z,16.52
2022-09-15T05:19:19.505Z,16.31
2022-09-15T05:19:59.573Z,16.56
2022-09-15T05:20:40.511Z,16.48
2022-09-15T05:21:23.568Z,16.44
2022-09-15T05:22:03.492Z,16.49
2022-09-15T05:22:43.803Z,16.45
2022-09-15T05:23:24.539Z,16.45
2022-09-15T05:24:04.565Z,16.40
2022-09-15T05:24:44.456Z,16.43
2022-09-15T05:25:25.011Z,16.38
2022-09-15T05:26:07.517Z,16.44
2022-09-15T05:26:47.610Z,16.41
2022-09-15T05:27:27.513Z,16.36
2022-09-15T05:28:07.776Z,16.37
2022-09-15T05:28:48.591Z,16.42
2022-09-15T05:29:28.557Z,16.40
2022-09-15T05:30:35.826Z,16.30
2022-09-15T05:31:31.269Z,16.24
2022-09-15T05:32:11.448Z,16.33
2022-09-15T05:32:51.794Z,16.19
2022-09-15T05:33:31.509Z,16.33
2022-09-15T05:34:12.500Z,16.08
2022-09-15T05:34:46.545Z,16.24
2022-09-15T05:35:33.507Z,16.23
2022-09-15T05:36:07.592Z,16.24
2022-09-15T05:36:54.480Z,16.27
2022-09-15T05:37:34.619Z,16.35
2022-09-15T05:38:14.473Z,16.38
2022-09-15T05:38:56.476Z,16.36
2022-09-15T05:39:36.530Z,16.44
2022-09-15T05:40:20.609Z,16.39
2022-09-15T05:41:00.493Z,16.41
2022-09-15T05:41:41.233Z,16.36
2022-09-15T05:42:21.485Z,16.36
2022-09-15T05:43:01.522Z,16.44
2022-09-15T05:43:43.501Z,16.38
2022-09-15T05:44:23.541Z,16.38
2022-09-15T05:45:03.506Z,16.44
2022-09-15T05:45:44.616Z,16.35
2022-09-15T05:46:25.530Z,16.36
2022-09-15T05:47:05.556Z,16.36
2022-09-15T05:47:45.488Z,16.37
2022-09-15T05:48:25.516Z,16.34
2022-09-15T05:49:05.500Z,16.36
2022-09-15T05:49:46.003Z,16.32
2022-09-15T05:50:26.502Z,16.39
2022-09-15T05:51:07.917Z,16.31
2022-09-15T05:51:48.455Z,16.36
2022-09-15T05:52:28.539Z,16.35
2022-09-15T05:53:08.486Z,16.26
2022-09-15T05:53:49.609Z,16.25
2022-09-15T05:54:29.478Z,16.30
2022-09-15T05:55:10.525Z,16.22
2022-09-15T05:55:51.485Z,16.23
2022-09-15T05:56:31.565Z,16.23
2022-09-15T05:57:12.492Z,16.24
2022-09-15T05:57:53.688Z,16.33
2022-09-15T05:58:34.501Z,16.33
2022-09-15T05:59:14.520Z,16.34
2022-09-15T05:59:54.477Z,16.34
2022-09-15T06:00:34.563Z,16.32
2022-09-15T06:01:21.516Z,16.40
2022-09-15T06:02:01.574Z,16.49
2022-09-15T06:02:41.514Z,16.44
2022-09-15T06:03:27.454Z,16.37
2022-09-15T06:04:09.431Z,16.38
2022-09-15T06:04:49.542Z,16.38
2022-09-15T06:05:29.461Z,16.38
2022-09-15T06:06:12.517Z,16.34
2022-09-15T06:06:52.489Z,16.43
2022-09-15T06:07:32.501Z,16.41
2022-09-15T06:08:12.449Z,16.38
2022-09-15T06:08:58.169Z,16.44
2022-09-15T06:09:39.433Z,16.48
2022-09-15T06:10:19.592Z,16.41
2022-09-15T06:10:59.755Z,16.48
2022-09-15T06:11:40.564Z,16.49
2022-09-15T06:12:20.467Z,16.50
2022-09-15T06:13:01.527Z,16.55
2022-09-15T06:13:41.471Z,16.55
2022-09-15T06:14:21.515Z,16.52
2022-09-15T06:15:01.484Z,16.53
2022-09-15T06:15:41.552Z,16.42
2022-09-15T06:16:25.479Z,16.44
2022-09-15T06:17:06.522Z,16.47
2022-09-15T06:17:46.629Z,16.38
2022-09-15T06:18:26.488Z,16.57
2022-09-15T06:19:10.449Z,16.59
2022-09-15T06:19:50.507Z,16.56
2022-09-15T06:20:32.440Z,16.48
2022-09-15T06:21:16.526Z,16.42
2022-09-15T06:21:57.435Z,16.42
2022-09-15T06:22:37.480Z,16.39
2022-09-15T06:23:17.469Z,16.44
2022-09-15T06:24:18.499Z,16.48
2022-09-15T06:24:59.639Z,16.61
2022-09-15T06:25:40.518Z,16.41
2022-09-15T06:26:24.446Z,16.41
2022-09-15T06:27:04.502Z,16.43
2022-09-15T06:27:47.447Z,16.49
2022-09-15T06:28:35.450Z,16.48
2022-09-15T06:29:12.054Z,16.58
2022-09-15T06:29:59.441Z,16.46
2022-09-15T06:30:33.274Z,16.56
2022-09-15T06:31:26.467Z,16.48
2022-09-15T06:32:02.784Z,16.52
2022-09-15T06:32:49.438Z,16.48
2022-09-15T06:33:23.596Z,16.46
2022-09-15T06:34:04.719Z,16.55
2022-09-15T06:34:39.482Z,16.56
2022-09-15T06:35:13.151Z,16.53
2022-09-15T06:35:54.413Z,16.54
2022-09-15T06:36:30.509Z,16.37
2022-09-15T06:37:04.136Z,16.43
2022-09-15T06:37:44.415Z,16.42
2022-09-15T06:38:18.525Z,16.35
2022-09-15T06:38:52.569Z,16.34
2022-09-15T06:39:33.462Z,16.32
2022-09-15T06:40:08.070Z,16.34
2022-09-15T06:40:42.120Z,16.39
2022-09-15T06:41:23.443Z,16.42
2022-09-15T06:42:05.814Z,16.47
2022-09-15T06:42:40.303Z,16.55
2022-09-15T06:43:20.399Z,16.50
2022-09-15T06:43:54.936Z,16.52
2022-09-15T06:44:29.203Z,16.49
2022-09-15T06:45:11.640Z,16.46
2022-09-15T06:45:45.510Z,16.45
2022-09-15T06:46:22.931Z,16.48
2022-09-15T06:47:04.408Z,16.48
2022-09-15T06:47:38.505Z,16.48
2022-09-15T06:48:23.913Z,16.61
2022-09-15T06:49:04.396Z,16.60
2022-09-15T06:49:38.490Z,16.49
2022-09-15T06:50:18.458Z,16.59
2022-09-15T06:51:01.515Z,16.46
2022-09-15T06:51:42.413Z,16.63
2022-09-15T06:52:22.483Z,16.75
2022-09-15T06:53:02.401Z,16.63
2022-09-15T06:53:44.546Z,16.67
2022-09-15T06:54:24.421Z,16.67
2022-09-15T06:55:05.326Z,16.69
2022-09-15T06:55:45.435Z,16.74
2022-09-15T06:56:29.134Z,16.62
2022-09-15T06:57:09.431Z,16.63
2022-09-15T06:57:49.475Z,16.53
2022-09-15T06:58:29.435Z,16.54
2022-09-15T06:59:23.895Z,16.43
2022-09-15T07:00:04.427Z,16.67
2022-09-15T07:00:53.457Z,16.69
2022-09-15T07:01:30.017Z,16.68
2022-09-15T07:02:17.468Z,16.65
2022-09-15T07:02:51.361Z,16.73
2022-09-15T07:03:38.465Z,16.66
2022-09-15T07:04:12.149Z,16.60
2022-09-15T07:04:59.410Z,16.57
2022-09-15T07:05:33.098Z,16.67
2022-09-15T07:06:15.435Z,16.66
2022-09-15T07:06:50.423Z,16.71
2022-09-15T07:07:24.265Z,16.73
2022-09-15T07:08:04.388Z,16.72
2022-09-15T07:08:38.452Z,16.68
2022-09-15T07:09:12.532Z,16.68
2022-09-15T07:09:52.366Z,16.79
2022-09-15T07:10:26.615Z,16.77
2022-09-15T07:11:00.128Z,16.74
2022-09-15T07:11:41.422Z,16.70
2022-09-15T07:12:15.449Z,16.81
2022-09-15T07:12:49.089Z,16.71
2022-09-15T07:13:31.370Z,16.68
2022-09-15T07:14:05.492Z,16.76
2022-09-15T07:14:39.085Z,16.80
2022-09-15T07:15:19.395Z,16.86
2022-09-15T07:16:04.516Z,16.83
2022-09-15T07:16:38.313Z,16.88
2022-09-15T07:17:19.443Z,16.88
2022-09-15T07:17:53.689Z,16.92
2022-09-15T07:18:27.644Z,16.87
2022-09-15T07:19:10.381Z,16.83
2022-09-15T07:19:45.320Z,16.86
2022-09-15T07:20:19.093Z,16.93
2022-09-15T07:21:06.417Z,16.83
2022-09-15T07:21:40.432Z,16.91
2022-09-15T07:22:14.098Z,16.92
2022-09-15T07:22:55.426Z,17.02
2022-09-15T07:23:30.478Z,17.07
2022-09-15T07:24:07.234Z,17.07
2022-09-15T07:24:47.395Z,17.03
2022-09-15T07:25:21.433Z,17.05
2022-09-15T07:26:14.157Z,17.01
2022-09-15T07:26:55.379Z,17.07
2022-09-15T07:27:31.710Z,17.04
2022-09-15T07:28:12.410Z,16.98
2022-09-15T07:29:00.470Z,17.08
2022-09-15T07:29:40.386Z,16.96
2022-09-15T07:30:21.466Z,17.12
2022-09-15T07:31:02.381Z,17.16
2022-09-15T07:31:45.554Z,17.20
2022-09-15T07:32:25.432Z,17.19
2022-09-15T07:33:05.432Z,17.15
2022-09-15T07:33:45.504Z,17.15
2022-09-15T07:34:25.532Z,17.15
2022-09-15T07:35:05.378Z,17.22
2022-09-15T07:35:49.513Z,17.19
2022-09-15T07:36:37.370Z,17.17
2022-09-15T07:37:11.462Z,17.19
2022-09-15T07:37:58.370Z,17.13
2022-09-15T07:38:32.452Z,17.15
2022-09-15T07:39:13.461Z,17.10
2022-09-15T07:39:53.457Z,17.11
2022-09-15T07:40:35.441Z,17.27
2022-09-15T07:41:21.473Z,17.20
2022-09-15T07:42:01.376Z,17.22
2022-09-15T07:42:41.473Z,17.19
2022-09-15T07:43:22.392Z,17.21
2022-09-15T07:44:06.444Z,17.23
2022-09-15T07:44:47.416Z,17.16
2022-09-15T07:45:27.451Z,17.07
2022-09-15T07:46:08.462Z,17.14
2022-09-15T07:46:48.456Z,17.25
2022-09-15T07:47:28.405Z,17.29
2022-09-15T07:48:09.391Z,17.30
2022-09-15T07:48:53.551Z,17.24
2022-09-15T07:49:33.456Z,17.30
2022-09-15T07:50:14.432Z,17.27
2022-09-15T07:50:54.433Z,17.13
2022-09-15T07:51:35.357Z,17.11
2022-09-15T07:52:16.881Z,17.12
2022-09-15T07:52:56.355Z,17.29
2022-09-15T07:53:37.425Z,17.19
2022-09-15T07:54:22.669Z,17.28
2022-09-15T07:55:03.448Z,17.13
2022-09-15T07:55:44.406Z,17.21
2022-09-15T07:56:25.621Z,17.18
2022-09-15T07:57:05.352Z,17.20
2022-09-15T07:57:45.443Z,17.15
2022-09-15T07:58:26.384Z,17.22
2022-09-15T07:59:07.740Z,17.21
2022-09-15T07:59:48.396Z,17.17
2022-09-15T08:00:28.573Z,17.14
2022-09-15T08:01:12.467Z,17.13
2022-09-15T08:01:52.619Z,17.11
2022-09-15T08:02:33.412Z,17.11
2022-09-15T08:03:13.511Z,17.09
2022-09-15T08:03:57.366Z,17.23
2022-09-15T08:04:37.451Z,17.32
2022-09-15T08:05:18.375Z,17.40
2022-09-15T08:06:08.442Z,17.45
2022-09-15T08:06:49.442Z,17.46
2022-09-15T08:07:29.518Z,17.51
2022-09-15T08:08:09.365Z,17.54
2022-09-15T08:08:52.273Z,17.56
2022-09-15T08:09:35.398Z,17.30
2022-09-15T08:10:16.452Z,17.48
2022-09-15T08:10:56.368Z,17.58
2022-09-15T08:11:36.459Z,17.65
2022-09-15T08:12:17.396Z,17.64
2022-09-15T08:13:00.478Z,17.63
2022-09-15T08:13:40.356Z,17.52
2022-09-15T08:14:21.662Z,17.49
2022-09-15T08:15:01.354Z,17.62
2022-09-15T08:15:45.138Z,17.62
2022-09-15T08:16:29.493Z,17.65
2022-09-15T08:17:11.673Z,17.68
2022-09-15T08:17:53.371Z,17.64
2022-09-15T08:18:33.469Z,17.60
2022-09-15T08:19:14.360Z,17.63
2022-09-15T08:19:54.485Z,17.68
2022-09-15T08:20:35.359Z,17.67
2022-09-15T08:21:20.329Z,17.69
2022-09-15T08:22:00.368Z,17.65
2022-09-15T08:22:41.135Z,17.80
2022-09-15T08:23:22.398Z,17.77
2022-09-15T08:24:05.517Z,17.78
2022-09-15T08:24:45.326Z,17.80
2022-09-15T08:25:25.422Z,17.76
2022-09-15T08:26:07.448Z,17.76
2022-09-15T08:26:50.690Z,17.64
2022-09-15T08:27:30.338Z,17.84
2022-09-15T08:28:10.438Z,17.69
2022-09-15T08:28:51.416Z,17.77
2022-09-15T08:29:31.955Z,17.77
2022-09-15T08:30:14.357Z,17.65
2022-09-15T08:30:55.272Z,17.70
2022-09-15T08:31:36.450Z,17.58
2022-09-15T08:32:16.481Z,17.63
2022-09-15T08:32:57.406Z,17.62
2022-09-15T08:33:39.830Z,17.61
2022-09-15T08:34:24.347Z,17.67
2022-09-15T08:35:04.553Z,17.63
2022-09-15T08:35:45.330Z,17.62
2022-09-15T08:36:28.199Z,17.57
2022-09-15T08:37:09.364Z,17.79
2022-09-15T08:37:49.442Z,17.72
2022-09-15T08:38:29.335Z,17.78
2022-09-15T08:39:10.433Z,17.70
2022-09-15T08:39:53.510Z,17.70
2022-09-15T08:40:44.433Z,17.75
2022-09-15T08:41:45.354Z,17.87
2022-09-15T08:42:29.173Z,17.78
2022-09-15T08:43:25.331Z,17.75
2022-09-15T08:44:15.959Z,17.86
2022-09-15T08:45:31.366Z,17.74
2022-09-15T08:46:16.451Z,17.89
2022-09-15T08:47:11.338Z,17.92
2022-09-15T08:47:56.099Z,17.91
2022-09-15T08:48:51.309Z,17.93
2022-09-15T08:50:05.091Z,17.91
2022-09-15T08:50:53.406Z,17.85
2022-09-15T08:51:55.416Z,17.79
2022-09-15T08:52:45.340Z,17.98
2022-09-15T08:53:41.488Z,17.86
2022-09-15T08:54:32.362Z,18.05
2022-09-15T08:56:02.369Z,18.13
2022-09-15T08:56:57.367Z,18.11
2022-09-15T08:57:51.350Z,18.19
2022-09-15T08:58:50.363Z,18.15
2022-09-15T08:59:49.340Z,18.19
2022-09-15T09:00:44.371Z,18.09
2022-09-15T09:02:07.432Z,18.11
2022-09-15T09:03:23.924Z,18.07
2022-09-15T09:04:47.286Z,18.08
2022-09-15T09:05:45.757Z,18.00
2022-09-15T09:06:43.348Z,17.98
2022-09-15T09:07:36.362Z,18.12
2022-09-15T09:09:06.284Z,18.18
2022-09-15T09:10:06.272Z,18.15
2022-09-15T09:11:00.422Z,18.24
2022-09-15T09:11:57.357Z,18.19
2022-09-15T09:13:32.051Z,18.30
2022-09-15T09:15:08.314Z,18.30
2022-09-15T09:16:27.345Z,18.35
2022-09-15T09:17:44.340Z,18.19
2022-09-15T09:19:14.346Z,18.49
2022-09-15T09:20:33.314Z,18.53
2022-09-15T09:21:38.300Z,18.62
2022-09-15T09:22:38.292Z,18.63
2022-09-15T09:23:38.317Z,18.57
2022-09-15T09:24:50.329Z,18.52
2022-09-15T09:25:44.328Z,18.47
2022-09-15T09:26:38.313Z,18.50
2022-09-15T09:27:38.322Z,18.47
2022-09-15T09:28:45.325Z,18.49
2022-09-15T09:29:56.388Z,18.58
2022-09-15T09:30:50.343Z,18.44
2022-09-15T09:31:44.364Z,18.57
2022-09-15T09:32:47.388Z,18.65
2022-09-15T09:33:55.396Z,18.64
2022-09-15T09:35:00.317Z,18.59
2022-09-15T09:36:04.299Z,18.80
2022-09-15T09:36:58.258Z,18.79
2022-09-15T09:37:52.269Z,18.84
2022-09-15T09:38:52.262Z,18.86
2022-09-15T09:39:46.344Z,18.93
2022-09-15T09:40:27.508Z,18.97
2022-09-15T09:41:43.280Z,19.02
2022-09-15T09:42:44.271Z,18.95
2022-09-15T09:43:38.243Z,18.81
2022-09-15T09:44:38.273Z,18.94
2022-09-15T09:45:33.267Z,19.02
2022-09-15T09:46:31.319Z,18.87